CheckWX is a tool to help pilots better visualize weather data.  It is not intended as a substitute for an official pre-flight weather briefing.

11:53:54 UTC

KNEW TAF
Lakefront Airport
New Orleans, Louisiana, USA
KNEW 281120Z 2812/2912 08005KT P6SM SKC FM290600 12006KT P6SM -SHRA BKN060 FM290700 12007KT P6SM -SHRA BKN035 FM290800 13007KT P6SM -SHRA OVC025 FM291100 13008KT P6SM -SHRA OVC015

Jan-28@
12:00 UTC

Jan-28 @ 12:00 UTC

Jan-29@
06:00 UTC

Jan-29 @ 06:00 UTC

KNEW 281120Z 2812/2912 08005KT P6SM SKC
Wind
  • 080° at 5 KTS
Cloud Levels
  • Clear skies

Jan-29@
06:00 UTC

Jan-29 @ 06:00 UTC

Jan-29@
07:00 UTC

Jan-29 @ 07:00 UTC

FM290600 12006KT P6SM -SHRA BKN060

From

From Standard forecast or significant change

Wind
  • 120° at 6 KTS
Conditions
Light Rain
Cloud Levels
  • Broken at 6,000' AGL

Jan-29@
07:00 UTC

Jan-29 @ 07:00 UTC

Jan-29@
08:00 UTC

Jan-29 @ 08:00 UTC

FM290700 12007KT P6SM -SHRA BKN035

From

From Standard forecast or significant change

Wind
  • 120° at 7 KTS
Conditions
Light Rain
Cloud Levels
  • Broken at 3,500' AGL

Jan-29@
08:00 UTC

Jan-29 @ 08:00 UTC

Jan-29@
11:00 UTC

Jan-29 @ 11:00 UTC

FM290800 13007KT P6SM -SHRA OVC025

From

From Standard forecast or significant change

Wind
  • 130° at 7 KTS
Conditions
Light Rain
Cloud Levels
  • Overcast at 2,500' AGL

Jan-29@
11:00 UTC

Jan-29 @ 11:00 UTC

Jan-29@
12:00 UTC

Jan-29 @ 12:00 UTC

FM291100 13008KT P6SM -SHRA OVC015

From

From Standard forecast or significant change

Wind
  • 130° at 8 KTS
Conditions
Light Rain
Cloud Levels
  • Overcast at 1,500' AGL